Terminal Aerodrome Forecast
Issued by NWS Mt. Holly, NJ

Current Version | Previous Version | Text Only | Print | Product List | Glossary On
Versions: 1 2 3 4 5 6 7 8 9 10 11 12 13 14 15 16 17 18 19 20 21 22 23 24 25 26 27 28 29 30 31 32 33 34 35 36 37 38 39 40 41 42 43 44 45 46 47 48 49 50
032
FTUS41 KPHI 210824 AAA
TAFABE
TAF AMD
KABE 210824Z 2108/2206 00000KT 1/4SM FG OVC003
     FM211600 VRB03KT 4SM BR BKN006 OVC012
     FM211800 23004KT P6SM BKN012
     FM220000 00000KT 3SM BR OVC002=

USA.gov is the U.S. government's official web portal to all federal, state and local government web resources and services.